createdAt,value
2023-01-31T00:02:20.747Z,4.80
2023-01-31T00:05:54.777Z,4.00
2023-01-31T00:09:37.693Z,4.70
2023-01-31T00:12:55.223Z,4.90
2023-01-31T00:16:16.167Z,3.90
2023-01-31T00:20:10.339Z,3.70
2023-01-31T00:23:55.061Z,3.40
2023-01-31T00:27:26.624Z,3.30
2023-01-31T00:31:13.445Z,4.70
2023-01-31T00:34:26.436Z,3.20
2023-01-31T00:38:03.452Z,5.00
2023-01-31T00:41:37.319Z,4.70
2023-01-31T00:45:21.088Z,4.30
2023-01-31T00:49:05.505Z,4.20
2023-01-31T00:52:44.807Z,4.30
2023-01-31T00:56:27.139Z,3.00
2023-01-31T00:59:51.238Z,3.40
2023-01-31T01:03:37.596Z,3.90
2023-01-31T01:06:47.673Z,3.70
2023-01-31T01:09:58.773Z,3.10
2023-01-31T01:14:02.635Z,3.40
2023-01-31T01:17:39.115Z,4.30
2023-01-31T01:21:15.306Z,3.60
2023-01-31T01:24:32.994Z,3.60
2023-01-31T01:27:31.684Z,3.50
2023-01-31T01:30:39.663Z,3.90
2023-01-31T01:34:23.066Z,3.20
2023-01-31T01:37:47.731Z,3.20
2023-01-31T01:41:37.579Z,4.30
2023-01-31T01:45:21.167Z,3.80
2023-01-31T01:48:57.706Z,4.50
2023-01-31T01:52:19.697Z,4.70
2023-01-31T01:55:30.785Z,3.50
2023-01-31T01:59:17.234Z,4.20
2023-01-31T02:02:13.926Z,5.10
2023-01-31T02:04:57.216Z,4.20
2023-01-31T02:07:41.825Z,3.30
2023-01-31T02:11:00.286Z,3.30
2023-01-31T02:13:45.834Z,4.10
2023-01-31T02:16:30.641Z,3.20
2023-01-31T02:19:48.939Z,3.70
2023-01-31T02:22:56.919Z,3.70
2023-01-31T02:26:01.396Z,4.30
2023-01-31T02:29:08.895Z,3.60
2023-01-31T02:32:11.691Z,3.10
2023-01-31T02:35:19.060Z,3.20
2023-01-31T02:38:39.825Z,3.80
2023-01-31T02:41:51.373Z,4.10
2023-01-31T02:45:01.124Z,3.30
2023-01-31T02:47:59.892Z,5.70
2023-01-31T02:51:08.395Z,3.10
2023-01-31T02:54:09.940Z,3.60
2023-01-31T02:56:53.979Z,4.70
2023-01-31T02:59:37.250Z,4.70
2023-01-31T03:02:21.620Z,3.90
2023-01-31T03:05:05.354Z,4.20
2023-01-31T03:07:58.605Z,3.50
2023-01-31T03:10:44.728Z,3.30
2023-01-31T03:13:49.249Z,4.20
2023-01-31T03:17:27.297Z,3.60
2023-01-31T03:20:27.812Z,3.80
2023-01-31T03:23:23.847Z,3.40
2023-01-31T03:26:07.774Z,3.60
2023-01-31T03:28:57.151Z,3.80
2023-01-31T03:31:47.269Z,3.90
2023-01-31T03:34:31.465Z,3.70
2023-01-31T03:37:25.020Z,3.80
2023-01-31T03:40:17.613Z,4.50
2023-01-31T03:43:17.388Z,3.60
2023-01-31T03:46:26.426Z,3.80
2023-01-31T03:49:14.008Z,3.80
2023-01-31T03:52:07.747Z,4.00
2023-01-31T03:55:00.393Z,4.40
2023-01-31T03:57:46.699Z,3.60
2023-01-31T04:00:30.247Z,3.90
2023-01-31T04:03:32.324Z,3.60
2023-01-31T04:06:17.143Z,5.10
2023-01-31T04:09:00.521Z,4.30
2023-01-31T04:11:48.797Z,3.50
2023-01-31T04:14:32.124Z,4.40
2023-01-31T04:17:15.242Z,3.70
2023-01-31T04:19:58.193Z,3.30
2023-01-31T04:25:23.893Z,4.10
2023-01-31T04:28:07.791Z,3.00
2023-01-31T04:30:57.633Z,3.80
2023-01-31T04:33:40.474Z,3.00
2023-01-31T04:39:06.563Z,3.30
2023-01-31T04:41:50.602Z,3.40
2023-01-31T04:44:33.497Z,3.70
2023-01-31T04:47:16.390Z,3.50
2023-01-31T04:49:59.218Z,3.60
2023-01-31T04:55:25.985Z,3.70
2023-01-31T04:58:08.901Z,3.90
2023-01-31T05:00:54.576Z,4.30
2023-01-31T05:03:37.798Z,3.50
2023-01-31T05:06:20.697Z,3.30
2023-01-31T05:09:03.828Z,3.80
2023-01-31T05:11:46.739Z,3.90
2023-01-31T05:17:12.357Z,3.80
2023-01-31T05:19:58.858Z,3.10
2023-01-31T05:22:41.676Z,2.80
2023-01-31T05:28:08.334Z,3.00
2023-01-31T05:30:52.402Z,4.30
2023-01-31T05:33:36.231Z,3.40
2023-01-31T05:36:19.136Z,4.20
2023-01-31T05:41:45.076Z,3.60
2023-01-31T05:44:28.159Z,4.20
2023-01-31T05:47:10.984Z,3.00
2023-01-31T05:52:37.457Z,2.60
2023-01-31T05:55:21.478Z,3.30
2023-01-31T05:58:04.923Z,2.70
2023-01-31T06:00:47.696Z,3.00
2023-01-31T06:06:14.055Z,3.80
2023-01-31T06:08:56.895Z,3.90
2023-01-31T06:11:39.958Z,3.40
2023-01-31T06:14:23.087Z,3.80
2023-01-31T06:17:06.046Z,3.10
2023-01-31T06:19:48.980Z,2.60
2023-01-31T06:22:31.897Z,2.50
2023-01-31T06:25:15.817Z,3.80
2023-01-31T06:27:59.245Z,3.10
2023-01-31T06:30:42.390Z,2.50
2023-01-31T06:33:42.286Z,3.10
2023-01-31T06:36:27.592Z,2.70
2023-01-31T06:39:12.316Z,3.00
2023-01-31T06:41:55.611Z,2.90
2023-01-31T06:44:38.608Z,3.10
2023-01-31T06:47:21.627Z,3.00
2023-01-31T06:50:05.253Z,3.10
2023-01-31T06:52:48.309Z,3.00
2023-01-31T06:55:31.493Z,2.80
2023-01-31T06:58:14.546Z,2.60
2023-01-31T07:00:58.824Z,2.80
2023-01-31T07:03:42.099Z,2.90
2023-01-31T07:06:25.234Z,5.20
2023-01-31T07:09:08.099Z,4.10
2023-01-31T07:14:34.012Z,4.10
2023-01-31T07:17:17.999Z,4.20
2023-01-31T07:20:00.853Z,3.80
2023-01-31T07:25:27.593Z,4.20
2023-01-31T07:28:12.177Z,4.20
2023-01-31T07:30:55.036Z,4.30
2023-01-31T07:33:39.131Z,3.60
2023-01-31T07:36:26.593Z,3.70
2023-01-31T07:39:09.547Z,3.70
2023-01-31T07:41:52.406Z,4.00
2023-01-31T07:44:40.916Z,4.30
2023-01-31T07:47:23.777Z,3.90
2023-01-31T07:52:51.138Z,3.70
2023-01-31T07:55:34.014Z,3.50
2023-01-31T08:04:18.327Z,3.80
2023-01-31T08:07:05.682Z,3.70
2023-01-31T08:09:50.363Z,3.80
2023-01-31T08:12:33.469Z,4.20
2023-01-31T08:15:16.575Z,4.40
2023-01-31T08:17:59.627Z,4.00
2023-01-31T08:20:42.501Z,5.00
2023-01-31T08:26:16.066Z,3.80
2023-01-31T08:29:00.167Z,4.00
2023-01-31T08:31:43.806Z,5.30
2023-01-31T08:34:28.049Z,4.50
2023-01-31T08:37:11.002Z,4.00
2023-01-31T08:39:54.070Z,3.30
2023-01-31T08:42:36.979Z,4.70
2023-01-31T08:45:20.096Z,3.90
2023-01-31T08:48:03.736Z,3.70
2023-01-31T08:50:46.591Z,3.60
2023-01-31T08:53:29.710Z,4.00
2023-01-31T08:56:14.517Z,3.30
2023-01-31T08:58:57.527Z,3.80
2023-01-31T09:01:42.558Z,4.20
2023-01-31T09:04:25.589Z,3.10
2023-01-31T09:07:08.617Z,4.50
2023-01-31T09:12:35.604Z,3.20
2023-01-31T09:15:19.098Z,3.70
2023-01-31T09:18:02.281Z,3.90
2023-01-31T09:20:45.284Z,3.20
2023-01-31T09:26:13.694Z,3.50
2023-01-31T09:28:58.911Z,4.70
2023-01-31T09:31:41.864Z,3.20
2023-01-31T09:34:24.846Z,2.60
2023-01-31T09:37:07.859Z,4.20
2023-01-31T09:39:50.916Z,4.30
2023-01-31T09:42:44.062Z,3.30
2023-01-31T09:45:33.243Z,4.10
2023-01-31T09:48:21.248Z,3.40
2023-01-31T09:51:05.832Z,3.00
2023-01-31T09:53:48.911Z,4.30
2023-01-31T09:56:50.800Z,3.80
2023-01-31T10:00:00.283Z,3.90
2023-01-31T10:03:11.310Z,4.70
2023-01-31T10:06:19.032Z,4.50
2023-01-31T10:09:10.727Z,3.40
2023-01-31T10:12:22.764Z,3.40
2023-01-31T10:15:13.692Z,3.70
2023-01-31T10:18:02.449Z,3.30
2023-01-31T10:21:27.239Z,5.00
2023-01-31T10:24:40.757Z,3.80
2023-01-31T10:27:35.877Z,3.30
2023-01-31T10:30:24.944Z,4.70
2023-01-31T10:33:44.200Z,4.00
2023-01-31T10:36:49.531Z,3.10
2023-01-31T10:40:02.783Z,3.20
2023-01-31T10:45:33.918Z,3.60
2023-01-31T10:48:26.256Z,4.20
2023-01-31T10:51:31.656Z,3.20
2023-01-31T10:54:42.024Z,2.60
2023-01-31T10:57:25.190Z,3.70
2023-01-31T11:00:37.516Z,3.40
2023-01-31T11:03:21.111Z,2.70
2023-01-31T11:06:06.606Z,3.20
2023-01-31T11:08:57.129Z,4.00
2023-01-31T11:11:58.893Z,3.40
2023-01-31T11:14:42.046Z,3.70
2023-01-31T11:17:25.061Z,4.10
2023-01-31T11:20:22.145Z,3.80
2023-01-31T11:23:07.385Z,3.40
2023-01-31T11:25:52.976Z,4.40
2023-01-31T11:28:40.749Z,4.00
2023-01-31T11:31:32.206Z,4.60
2023-01-31T11:34:24.291Z,4.00
2023-01-31T11:37:15.620Z,4.40
2023-01-31T11:40:01.112Z,3.90
2023-01-31T11:42:57.768Z,4.10
2023-01-31T11:45:46.063Z,2.90
2023-01-31T11:48:42.391Z,3.80
2023-01-31T11:51:31.936Z,4.40
2023-01-31T11:54:20.310Z,6.10
2023-01-31T11:57:14.681Z,4.60
2023-01-31T12:00:01.052Z,4.90
2023-01-31T12:02:45.157Z,4.50
2023-01-31T12:05:41.224Z,4.70
2023-01-31T12:08:35.907Z,4.90
2023-01-31T12:11:22.082Z,4.20
2023-01-31T12:14:07.141Z,4.90
2023-01-31T12:16:51.386Z,4.20
2023-01-31T12:19:46.665Z,4.20
2023-01-31T12:22:52.633Z,3.90
2023-01-31T12:25:53.820Z,6.60
2023-01-31T12:29:19.547Z,9.50
2023-01-31T12:32:36.046Z,5.30
2023-01-31T12:35:30.024Z,4.10
2023-01-31T12:38:47.394Z,4.40
2023-01-31T12:41:39.790Z,3.60
2023-01-31T12:44:52.076Z,4.50
2023-01-31T12:47:52.069Z,4.80
2023-01-31T12:50:37.743Z,4.00
2023-01-31T12:53:38.614Z,5.00
2023-01-31T12:56:55.331Z,4.60
2023-01-31T12:59:55.419Z,6.40
2023-01-31T13:03:00.232Z,5.20
2023-01-31T13:05:56.228Z,10.80
2023-01-31T13:08:41.239Z,8.30
2023-01-31T13:11:53.887Z,6.70
2023-01-31T13:14:42.632Z,5.60
2023-01-31T13:17:28.923Z,6.70
2023-01-31T13:20:11.836Z,7.50
2023-01-31T13:23:00.235Z,5.60
2023-01-31T13:25:59.257Z,5.70
2023-01-31T13:28:49.173Z,5.50
2023-01-31T13:31:40.263Z,5.10
2023-01-31T13:34:30.927Z,4.40
2023-01-31T13:37:22.254Z,4.00
2023-01-31T13:40:19.788Z,4.70
2023-01-31T13:43:13.041Z,4.80
2023-01-31T13:46:06.466Z,7.70
2023-01-31T13:48:55.648Z,5.30
2023-01-31T13:51:46.539Z,6.00
2023-01-31T13:54:34.271Z,5.20
2023-01-31T13:57:29.054Z,4.50
2023-01-31T14:00:30.881Z,4.70
2023-01-31T14:03:17.399Z,5.00
2023-01-31T14:06:02.212Z,4.70
2023-01-31T14:08:50.079Z,4.40
2023-01-31T14:11:34.249Z,4.10
2023-01-31T14:14:41.971Z,3.90
2023-01-31T14:17:27.826Z,3.90
2023-01-31T14:20:28.125Z,6.70
2023-01-31T14:23:43.665Z,5.90
2023-01-31T14:26:44.700Z,4.80
2023-01-31T14:29:28.120Z,4.20
2023-01-31T14:32:30.388Z,3.90
2023-01-31T14:35:13.248Z,4.70
2023-01-31T14:41:01.217Z,4.00
2023-01-31T14:44:06.140Z,5.30
2023-01-31T14:47:16.088Z,5.00
2023-01-31T14:50:39.274Z,5.10
2023-01-31T14:53:22.071Z,5.20
2023-01-31T14:58:54.183Z,4.90
2023-01-31T15:01:38.339Z,5.80
2023-01-31T15:04:24.646Z,6.50
2023-01-31T15:07:16.954Z,6.90
2023-01-31T15:09:59.880Z,5.70
2023-01-31T15:13:00.114Z,6.20
2023-01-31T15:15:49.417Z,6.80
2023-01-31T15:18:33.682Z,7.30
2023-01-31T15:21:30.303Z,6.60
2023-01-31T15:24:41.861Z,7.30
2023-01-31T15:27:29.394Z,7.10
2023-01-31T15:30:22.781Z,7.90
2023-01-31T15:33:15.182Z,9.50
2023-01-31T15:36:09.517Z,9.30
2023-01-31T15:38:54.650Z,9.80
2023-01-31T15:41:41.679Z,9.80
2023-01-31T15:44:28.414Z,11.30
2023-01-31T15:47:21.776Z,9.00
2023-01-31T15:50:16.252Z,10.20
2023-01-31T15:53:13.666Z,8.80
2023-01-31T15:55:59.700Z,8.10
2023-01-31T15:58:48.507Z,8.40
2023-01-31T16:01:31.558Z,9.20
2023-01-31T16:04:14.568Z,9.00
2023-01-31T16:06:58.910Z,8.60
2023-01-31T16:09:42.137Z,8.20
2023-01-31T16:12:26.227Z,9.70
2023-01-31T16:15:19.510Z,9.70
2023-01-31T16:18:03.671Z,10.20
2023-01-31T16:20:51.864Z,12.80
2023-01-31T16:23:37.692Z,10.70
2023-01-31T16:26:28.757Z,12.00
2023-01-31T16:29:18.163Z,11.30
2023-01-31T16:32:01.068Z,13.10
2023-01-31T16:34:44.082Z,10.80
2023-01-31T16:37:33.937Z,12.80
2023-01-31T16:40:27.726Z,12.80
2023-01-31T16:43:28.514Z,12.70
2023-01-31T16:46:35.941Z,12.80
2023-01-31T16:49:31.834Z,13.10
2023-01-31T16:52:24.544Z,14.10
2023-01-31T16:55:14.524Z,13.20
2023-01-31T16:57:57.535Z,13.20
2023-01-31T17:00:42.010Z,12.20
2023-01-31T17:03:25.871Z,13.20
2023-01-31T17:06:09.372Z,13.50
2023-01-31T17:08:52.283Z,12.70
2023-01-31T17:11:43.611Z,12.30
2023-01-31T17:14:26.808Z,12.60
2023-01-31T17:17:16.266Z,12.60
2023-01-31T17:20:05.140Z,13.60
2023-01-31T17:22:56.801Z,13.50
2023-01-31T17:25:44.582Z,13.40
2023-01-31T17:28:27.463Z,14.40
2023-01-31T17:33:58.462Z,12.20
2023-01-31T17:36:42.865Z,13.80
2023-01-31T17:39:25.696Z,12.10
2023-01-31T17:44:58.996Z,11.10
2023-01-31T17:47:42.141Z,11.50
2023-01-31T17:50:27.915Z,12.20
2023-01-31T17:53:14.305Z,11.00
2023-01-31T17:55:57.701Z,10.80
2023-01-31T17:58:40.828Z,10.70
2023-01-31T18:01:23.761Z,10.20
2023-01-31T18:04:07.576Z,10.60
2023-01-31T18:06:50.560Z,11.00
2023-01-31T18:09:33.589Z,10.60
2023-01-31T18:12:18.558Z,10.90
2023-01-31T18:15:02.467Z,10.10
2023-01-31T18:17:45.416Z,10.90
2023-01-31T18:20:28.270Z,10.60
2023-01-31T18:23:11.477Z,10.60
2023-01-31T18:25:54.397Z,10.40
2023-01-31T18:28:37.907Z,10.50
2023-01-31T18:31:23.301Z,10.40
2023-01-31T18:34:06.623Z,10.60
2023-01-31T18:36:50.298Z,9.70
2023-01-31T18:39:34.018Z,9.50
2023-01-31T18:42:17.705Z,11.20
2023-01-31T18:45:02.482Z,11.10
2023-01-31T18:47:45.733Z,9.60
2023-01-31T18:50:30.796Z,11.80
2023-01-31T18:53:14.392Z,11.00
2023-01-31T18:56:06.133Z,11.10
2023-01-31T18:58:51.219Z,12.00
2023-01-31T19:01:34.492Z,10.70
2023-01-31T19:04:17.455Z,11.80
2023-01-31T19:07:00.555Z,11.60
2023-01-31T19:09:43.607Z,13.30
2023-01-31T19:12:26.688Z,12.40
2023-01-31T19:15:12.351Z,12.30
2023-01-31T19:17:55.547Z,11.40
2023-01-31T19:20:38.795Z,12.00
2023-01-31T19:23:22.055Z,11.10
2023-01-31T19:26:04.972Z,10.60
2023-01-31T19:28:48.723Z,9.90
2023-01-31T19:31:33.880Z,10.40
2023-01-31T19:34:19.543Z,10.30
2023-01-31T19:37:02.481Z,10.20
2023-01-31T19:39:47.233Z,10.30
2023-01-31T19:42:30.784Z,10.50
2023-01-31T19:45:22.587Z,11.30
2023-01-31T19:48:06.430Z,13.20
2023-01-31T19:50:50.704Z,11.10
2023-01-31T19:53:34.329Z,10.50
2023-01-31T19:56:18.176Z,10.70
2023-01-31T19:59:01.688Z,11.00
2023-01-31T20:01:45.415Z,10.80
2023-01-31T20:04:32.368Z,9.70
2023-01-31T20:07:16.385Z,10.20
2023-01-31T20:10:00.661Z,10.50
2023-01-31T20:12:45.541Z,8.90
2023-01-31T20:15:30.519Z,8.80
2023-01-31T20:18:14.362Z,9.20
2023-01-31T20:20:58.573Z,8.80
2023-01-31T20:23:43.110Z,8.70
2023-01-31T20:26:29.533Z,8.20
2023-01-31T20:29:15.022Z,8.60
2023-01-31T20:32:01.356Z,9.00
2023-01-31T20:34:45.448Z,8.50
2023-01-31T20:37:29.531Z,8.00
2023-01-31T20:40:13.246Z,7.10
2023-01-31T20:42:56.859Z,8.10
2023-01-31T20:45:40.778Z,7.20
2023-01-31T20:48:26.271Z,7.70
2023-01-31T20:51:10.631Z,7.40
2023-01-31T20:53:54.901Z,7.50
2023-01-31T20:56:39.203Z,7.50
2023-01-31T20:59:24.298Z,7.70
2023-01-31T21:02:09.486Z,7.90
2023-01-31T21:04:52.638Z,6.40
2023-01-31T21:07:36.499Z,5.70
2023-01-31T21:10:20.247Z,6.00
2023-01-31T21:13:05.051Z,6.20
2023-01-31T21:15:53.504Z,6.90
2023-01-31T21:18:39.319Z,5.50
2023-01-31T21:21:23.547Z,4.60
2023-01-31T21:24:08.443Z,4.40
2023-01-31T21:26:51.789Z,2.80
2023-01-31T21:29:37.620Z,3.00
2023-01-31T21:32:21.270Z,2.40
2023-01-31T21:35:04.653Z,2.50
2023-01-31T21:37:48.616Z,1.60
2023-01-31T21:40:31.847Z,1.80
2023-01-31T21:43:16.255Z,1.60
2023-01-31T21:45:59.181Z,2.40
2023-01-31T21:48:42.222Z,1.90
2023-01-31T21:51:26.222Z,1.60
2023-01-31T21:54:09.301Z,2.20
2023-01-31T21:56:52.196Z,1.80
2023-01-31T21:59:36.479Z,1.90
2023-01-31T22:02:19.444Z,1.80
2023-01-31T22:05:03.276Z,1.60
2023-01-31T22:07:49.300Z,2.40
2023-01-31T22:10:32.281Z,2.30
2023-01-31T22:13:15.162Z,1.90
2023-01-31T22:18:44.017Z,1.60
2023-01-31T22:21:29.504Z,2.30
2023-01-31T22:24:12.497Z,1.70
2023-01-31T22:26:55.424Z,1.70
2023-01-31T22:32:21.023Z,1.80
2023-01-31T22:37:46.857Z,1.60
2023-01-31T22:43:15.485Z,2.00
2023-01-31T22:46:00.375Z,1.80
2023-01-31T22:48:43.742Z,2.30
2023-01-31T22:51:28.215Z,2.40
2023-01-31T22:54:11.102Z,2.30
2023-01-31T22:56:54.123Z,2.10
2023-01-31T22:59:37.071Z,2.80
2023-01-31T23:02:20.988Z,2.00
2023-01-31T23:05:03.991Z,2.00
2023-01-31T23:07:46.914Z,2.50
2023-01-31T23:10:29.927Z,2.70
2023-01-31T23:13:12.757Z,2.00
2023-01-31T23:15:55.717Z,2.60
2023-01-31T23:18:38.764Z,2.40
2023-01-31T23:21:21.709Z,3.00
2023-01-31T23:26:47.866Z,2.40
2023-01-31T23:29:30.940Z,4.50
2023-01-31T23:32:13.864Z,3.10
2023-01-31T23:34:56.814Z,4.40
2023-01-31T23:37:39.938Z,3.80
2023-01-31T23:40:23.201Z,3.50
2023-01-31T23:43:06.230Z,3.40
2023-01-31T23:48:33.704Z,3.50
2023-01-31T23:51:16.629Z,3.50
2023-01-31T23:53:59.832Z,3.30
2023-01-31T23:56:42.843Z,4.00
2023-01-31T23:59:25.691Z,3.50
